createdAt,value
2023-04-02T00:01:38.483Z,16.30
2023-04-02T00:03:45.253Z,15.90
2023-04-02T00:05:37.504Z,15.90
2023-04-02T00:07:33.330Z,13.30
2023-04-02T00:09:30.221Z,15.10
2023-04-02T00:11:37.486Z,15.60
2023-04-02T00:13:35.640Z,17.20
2023-04-02T00:15:28.209Z,15.80
2023-04-02T00:17:21.789Z,18.40
2023-04-02T00:19:18.758Z,13.60
2023-04-02T00:21:20.659Z,13.90
2023-04-02T00:23:14.632Z,18.20
2023-04-02T00:25:13.457Z,14.70
2023-04-02T00:27:09.950Z,12.00
2023-04-02T00:29:03.858Z,13.80
2023-04-02T00:30:59.246Z,12.50
2023-04-02T00:32:51.542Z,16.20
2023-04-02T00:34:43.173Z,16.50
2023-04-02T00:36:35.588Z,14.00
2023-04-02T00:38:29.897Z,13.80
2023-04-02T00:40:26.437Z,16.40
2023-04-02T00:42:18.540Z,16.40
2023-04-02T00:44:13.141Z,19.60
2023-04-02T00:46:11.151Z,17.80
2023-04-02T00:48:31.730Z,14.30
2023-04-02T00:50:35.949Z,15.80
2023-04-02T00:54:22.500Z,14.50
2023-04-02T00:56:26.445Z,17.40
2023-04-02T00:58:37.463Z,15.10
2023-04-02T01:00:34.209Z,15.50
2023-04-02T01:02:31.802Z,16.70
2023-04-02T01:04:31.603Z,14.80
2023-04-02T01:06:23.987Z,15.20
2023-04-02T01:08:27.485Z,14.80
2023-04-02T01:10:24.150Z,10.40
2023-04-02T01:12:28.216Z,14.00
2023-04-02T01:14:36.216Z,14.70
2023-04-02T01:16:31.065Z,14.90
2023-04-02T01:18:52.247Z,13.80
2023-04-02T01:21:33.173Z,10.50
2023-04-02T01:23:35.175Z,11.30
2023-04-02T01:25:42.758Z,10.10
2023-04-02T01:27:51.419Z,10.00
2023-04-02T01:29:49.050Z,9.60
2023-04-02T01:31:41.180Z,8.90
2023-04-02T01:33:34.525Z,9.60
2023-04-02T01:35:31.165Z,6.50
2023-04-02T01:37:38.244Z,8.20
2023-04-02T01:39:56.868Z,7.10
2023-04-02T01:41:58.028Z,7.50
2023-04-02T01:44:03.769Z,6.10
2023-04-02T01:45:58.236Z,7.50
2023-04-02T01:47:50.214Z,6.00
2023-04-02T01:49:43.432Z,6.40
2023-04-02T01:51:41.082Z,9.40
2023-04-02T01:53:33.374Z,9.20
2023-04-02T01:55:35.525Z,6.20
2023-04-02T01:57:28.206Z,8.40
2023-04-02T01:59:22.322Z,8.40
2023-04-02T02:01:17.453Z,9.90
2023-04-02T02:03:11.564Z,8.60
2023-04-02T02:05:03.624Z,7.70
2023-04-02T02:06:58.669Z,7.50
2023-04-02T02:08:52.212Z,7.50
2023-04-02T02:10:44.066Z,7.50
2023-04-02T02:12:36.038Z,7.20
2023-04-02T02:14:29.323Z,7.90
2023-04-02T02:16:21.571Z,8.30
2023-04-02T02:18:13.448Z,7.40
2023-04-02T02:20:11.453Z,8.60
2023-04-02T02:22:15.815Z,7.90
2023-04-02T02:26:00.580Z,8.90
2023-04-02T02:27:59.432Z,6.00
2023-04-02T02:29:57.118Z,7.30
2023-04-02T02:31:53.139Z,8.00
2023-04-02T02:33:53.178Z,8.00
2023-04-02T02:35:53.254Z,7.30
2023-04-02T02:37:47.911Z,8.40
2023-04-02T02:39:43.480Z,7.80
2023-04-02T02:41:50.344Z,8.90
2023-04-02T02:43:45.174Z,8.20
2023-04-02T02:45:39.074Z,7.70
2023-04-02T02:47:33.439Z,7.10
2023-04-02T02:49:33.959Z,6.70
2023-04-02T02:51:29.472Z,7.20
2023-04-02T02:53:23.500Z,5.50
2023-04-02T02:55:20.924Z,6.60
2023-04-02T02:57:17.846Z,6.20
2023-04-02T02:59:11.403Z,6.40
2023-04-02T03:01:03.559Z,6.40
2023-04-02T03:02:57.021Z,6.20
2023-04-02T03:04:50.828Z,5.50
2023-04-02T03:06:42.350Z,6.10
2023-04-02T03:08:41.741Z,6.10
2023-04-02T03:10:44.418Z,5.20
2023-04-02T03:12:54.238Z,6.20
2023-04-02T03:15:02.679Z,5.30
2023-04-02T03:16:59.816Z,5.60
2023-04-02T03:19:05.922Z,5.50
2023-04-02T03:21:02.889Z,5.90
2023-04-02T03:23:11.922Z,6.00
2023-04-02T03:25:12.562Z,4.40
2023-04-02T03:27:20.555Z,5.20
2023-04-02T03:29:18.890Z,4.50
2023-04-02T03:31:16.869Z,7.60
2023-04-02T03:33:19.162Z,6.10
2023-04-02T03:35:21.149Z,5.40
2023-04-02T03:37:30.523Z,5.40
2023-04-02T03:39:46.842Z,5.60
2023-04-02T03:41:43.057Z,4.60
2023-04-02T03:43:39.500Z,5.90
2023-04-02T03:45:37.311Z,6.60
2023-04-02T03:48:01.013Z,5.60
2023-04-02T03:50:00.517Z,7.00
2023-04-02T03:52:03.863Z,5.40
2023-04-02T03:53:56.416Z,6.90
2023-04-02T03:55:48.723Z,6.30
2023-04-02T03:57:46.049Z,6.90
2023-04-02T03:59:44.325Z,6.40
2023-04-02T04:02:02.011Z,6.50
2023-04-02T04:03:56.288Z,7.20
2023-04-02T04:05:51.858Z,6.60
2023-04-02T04:07:44.363Z,6.50
2023-04-02T04:09:37.897Z,6.30
2023-04-02T04:11:36.140Z,6.40
2023-04-02T04:14:01.477Z,7.30
2023-04-02T04:16:00.051Z,5.90
2023-04-02T04:18:24.604Z,5.70
2023-04-02T04:20:26.386Z,6.30
2023-04-02T04:22:20.302Z,5.30
2023-04-02T04:24:23.419Z,6.00
2023-04-02T04:26:49.775Z,5.20
2023-04-02T04:29:05.860Z,7.10
2023-04-02T04:31:01.563Z,7.30
2023-04-02T04:33:04.243Z,5.50
2023-04-02T04:35:01.103Z,5.70
2023-04-02T04:36:55.317Z,5.80
2023-04-02T04:38:55.408Z,6.00
2023-04-02T04:40:54.261Z,5.00
2023-04-02T04:42:48.632Z,6.40
2023-04-02T04:44:46.550Z,6.90
2023-04-02T04:46:41.993Z,7.80
2023-04-02T04:48:42.485Z,8.10
2023-04-02T04:50:58.416Z,9.40
2023-04-02T04:52:50.254Z,10.20
2023-04-02T04:54:42.491Z,9.40
2023-04-02T04:56:34.349Z,11.00
2023-04-02T04:58:35.296Z,10.70
2023-04-02T05:00:29.913Z,10.90
2023-04-02T05:02:29.946Z,12.20
2023-04-02T05:04:39.688Z,9.60
2023-04-02T05:06:31.994Z,10.20
2023-04-02T05:08:30.114Z,8.60
2023-04-02T05:12:28.328Z,8.50
2023-04-02T05:14:30.036Z,10.10
2023-04-02T05:16:37.264Z,10.00
2023-04-02T05:18:31.873Z,8.60
2023-04-02T05:20:23.942Z,7.90
2023-04-02T05:22:51.128Z,10.00
2023-04-02T05:24:43.016Z,9.60
2023-04-02T05:26:40.650Z,9.30
2023-04-02T05:28:56.630Z,8.20
2023-04-02T05:30:56.422Z,8.00
2023-04-02T05:32:56.460Z,8.80
2023-04-02T05:34:51.724Z,9.00
2023-04-02T05:36:46.871Z,9.10
2023-04-02T05:38:44.036Z,8.10
2023-04-02T05:40:39.901Z,9.00
2023-04-02T05:42:32.549Z,8.10
2023-04-02T05:44:32.444Z,10.20
2023-04-02T05:46:28.595Z,8.00
2023-04-02T05:48:25.452Z,5.80
2023-04-02T05:50:22.166Z,8.70
2023-04-02T05:52:17.869Z,10.40
2023-04-02T05:54:40.085Z,7.80
2023-04-02T05:56:44.143Z,11.10
2023-04-02T05:58:59.392Z,7.80
2023-04-02T06:01:12.126Z,7.70
2023-04-02T06:03:16.499Z,7.90
2023-04-02T06:05:13.217Z,8.70
2023-04-02T06:07:08.480Z,9.40
2023-04-02T06:09:20.223Z,7.60
2023-04-02T06:11:16.576Z,5.10
2023-04-02T06:13:09.008Z,5.40
2023-04-02T06:15:01.357Z,6.90
2023-04-02T06:16:52.651Z,5.20
2023-04-02T06:18:44.900Z,5.40
2023-04-02T06:20:36.856Z,4.50
2023-04-02T06:22:38.245Z,7.20
2023-04-02T06:24:31.339Z,5.30
2023-04-02T06:26:39.216Z,5.60
2023-04-02T06:28:54.976Z,5.20
2023-04-02T06:30:46.672Z,4.20
2023-04-02T06:32:37.889Z,5.10
2023-04-02T06:34:31.375Z,3.50
2023-04-02T06:36:24.484Z,5.00
2023-04-02T06:38:20.243Z,5.00
2023-04-02T06:40:44.363Z,4.50
2023-04-02T06:42:38.963Z,5.20
2023-04-02T06:44:34.252Z,5.40
2023-04-02T06:46:28.909Z,6.50
2023-04-02T06:48:21.568Z,6.10
2023-04-02T06:50:16.774Z,5.90
2023-04-02T06:52:19.613Z,6.90
2023-04-02T06:54:18.156Z,5.30
2023-04-02T06:56:12.816Z,5.60
2023-04-02T06:58:04.679Z,4.20
2023-04-02T06:59:56.238Z,6.30
2023-04-02T07:01:54.012Z,4.70
2023-04-02T07:03:45.727Z,7.50
2023-04-02T07:05:37.442Z,5.80
2023-04-02T07:07:29.290Z,4.50
2023-04-02T07:09:21.002Z,5.70
2023-04-02T07:11:18.235Z,4.60
2023-04-02T07:13:21.651Z,6.20
2023-04-02T07:15:16.618Z,5.60
2023-04-02T07:17:17.017Z,4.80
2023-04-02T07:19:16.777Z,3.10
2023-04-02T07:21:08.615Z,4.40
2023-04-02T07:23:00.513Z,3.00
2023-04-02T07:24:52.512Z,3.10
2023-04-02T07:26:44.378Z,4.50
2023-04-02T07:28:36.294Z,4.50
2023-04-02T07:30:27.761Z,4.10
2023-04-02T07:32:19.995Z,5.30
2023-04-02T07:34:11.969Z,2.90
2023-04-02T07:36:03.973Z,5.90
2023-04-02T07:37:55.886Z,4.00
2023-04-02T07:39:47.954Z,3.20
2023-04-02T07:41:57.206Z,7.70
2023-04-02T07:43:48.950Z,3.00
2023-04-02T07:45:43.833Z,3.60
2023-04-02T07:47:35.823Z,3.10
2023-04-02T07:49:27.678Z,2.80
2023-04-02T07:51:26.083Z,3.10
2023-04-02T07:53:30.099Z,2.30
2023-04-02T07:55:21.575Z,3.10
2023-04-02T07:57:13.355Z,4.20
2023-04-02T07:59:05.747Z,2.50
2023-04-02T08:00:57.349Z,5.50
2023-04-02T08:02:48.939Z,3.00
2023-04-02T08:04:40.627Z,3.80
2023-04-02T08:06:32.112Z,3.50
2023-04-02T08:08:25.051Z,4.20
2023-04-02T08:10:19.139Z,3.40
2023-04-02T08:12:14.025Z,4.10
2023-04-02T08:14:05.348Z,4.40
2023-04-02T08:15:59.365Z,4.30
2023-04-02T08:17:51.477Z,3.70
2023-04-02T08:19:53.713Z,4.10
2023-04-02T08:21:48.120Z,5.20
2023-04-02T08:23:39.692Z,4.90
2023-04-02T08:25:31.585Z,5.20
2023-04-02T08:27:24.521Z,4.20
2023-04-02T08:29:16.299Z,3.60
2023-04-02T08:31:09.100Z,4.20
2023-04-02T08:33:00.515Z,3.90
2023-04-02T08:34:52.953Z,2.60
2023-04-02T08:36:45.648Z,3.80
2023-04-02T08:38:37.180Z,3.60
2023-04-02T08:40:39.721Z,4.40
2023-04-02T08:42:47.396Z,4.10
2023-04-02T08:45:21.245Z,3.80
2023-04-02T08:47:20.699Z,3.70
2023-04-02T08:49:15.717Z,3.30
2023-04-02T08:51:08.380Z,4.30
2023-04-02T08:53:06.236Z,3.40
2023-04-02T08:54:58.224Z,4.00
2023-04-02T08:56:56.224Z,4.20
2023-04-02T08:58:50.830Z,5.10
2023-04-02T09:00:44.926Z,3.10
2023-04-02T09:02:43.565Z,4.40
2023-04-02T09:04:35.123Z,6.50
2023-04-02T09:06:29.417Z,4.60
2023-04-02T09:08:24.983Z,2.90
2023-04-02T09:10:17.389Z,3.20
2023-04-02T09:12:28.876Z,4.40
2023-04-02T09:14:25.824Z,3.10
2023-04-02T09:16:22.605Z,4.40
2023-04-02T09:18:19.217Z,3.30
2023-04-02T09:20:19.097Z,4.10
2023-04-02T09:22:19.186Z,4.00
2023-04-02T09:24:14.358Z,3.90
2023-04-02T09:26:27.337Z,4.00
2023-04-02T09:28:24.428Z,4.00
2023-04-02T09:30:31.959Z,5.80
2023-04-02T09:32:28.658Z,4.00
2023-04-02T09:34:33.599Z,3.80
2023-04-02T09:36:37.269Z,4.10
2023-04-02T09:38:31.704Z,3.60
2023-04-02T09:40:29.529Z,3.50
2023-04-02T09:42:34.309Z,3.30
2023-04-02T09:44:28.351Z,4.50
2023-04-02T09:48:39.477Z,3.70
2023-04-02T09:51:42.828Z,3.40
2023-04-02T09:53:38.675Z,2.60
2023-04-02T09:55:32.223Z,2.70
2023-04-02T09:57:25.268Z,6.30
2023-04-02T09:59:18.439Z,7.80
2023-04-02T10:01:28.224Z,3.50
2023-04-02T10:03:24.842Z,4.90
2023-04-02T10:05:36.967Z,2.80
2023-04-02T10:07:36.892Z,4.70
2023-04-02T10:09:31.168Z,3.60
2023-04-02T10:11:43.786Z,2.60
2023-04-02T10:13:40.650Z,2.20
2023-04-02T10:15:38.646Z,2.90
2023-04-02T10:17:32.916Z,3.90
2023-04-02T10:19:33.386Z,2.30
2023-04-02T10:23:20.056Z,3.20
2023-04-02T10:25:15.884Z,6.20
2023-04-02T10:27:39.773Z,3.50
2023-04-02T10:29:51.014Z,4.20
2023-04-02T10:32:10.362Z,3.80
2023-04-02T10:34:06.552Z,2.20
2023-04-02T10:36:10.341Z,3.60
2023-04-02T10:38:44.198Z,3.10
2023-04-02T10:40:47.794Z,2.80
2023-04-02T10:43:08.488Z,3.40
2023-04-02T10:45:37.902Z,4.60
2023-04-02T10:47:44.832Z,4.00
2023-04-02T10:49:41.469Z,4.70
2023-04-02T10:51:44.161Z,5.80
2023-04-02T10:53:48.594Z,4.30
2023-04-02T10:55:57.939Z,4.00
2023-04-02T10:57:51.547Z,3.60
2023-04-02T10:59:49.176Z,4.10
2023-04-02T11:01:41.708Z,3.90
2023-04-02T11:03:40.360Z,3.70
2023-04-02T11:05:51.411Z,3.00
2023-04-02T11:07:53.591Z,3.10
2023-04-02T11:09:48.288Z,2.90
2023-04-02T11:11:42.315Z,5.30
2023-04-02T11:13:34.120Z,3.70
2023-04-02T11:15:26.006Z,3.50
2023-04-02T11:17:19.777Z,5.10
2023-04-02T11:19:14.703Z,3.90
2023-04-02T11:21:07.792Z,2.40
2023-04-02T11:23:13.263Z,3.00
2023-04-02T11:25:21.736Z,2.90
2023-04-02T11:27:15.447Z,3.10
2023-04-02T11:29:28.519Z,3.60
2023-04-02T11:31:21.697Z,2.80
2023-04-02T11:33:38.194Z,4.00
2023-04-02T11:35:31.759Z,4.20
2023-04-02T11:37:34.430Z,4.00
2023-04-02T11:39:54.146Z,4.30
2023-04-02T11:42:05.527Z,3.90
2023-04-02T11:44:00.825Z,2.70
2023-04-02T11:45:57.168Z,3.60
2023-04-02T11:48:01.350Z,3.10
2023-04-02T11:50:04.463Z,5.00
2023-04-02T11:52:05.608Z,2.90
2023-04-02T11:54:04.265Z,3.70
2023-04-02T11:56:18.239Z,4.00
2023-04-02T11:58:38.248Z,4.30
2023-04-02T12:00:36.335Z,3.60
2023-04-02T12:02:54.891Z,5.40
2023-04-02T12:05:05.186Z,3.80
2023-04-02T12:09:04.896Z,4.00
2023-04-02T12:11:00.759Z,5.40
2023-04-02T12:12:52.404Z,3.50
2023-04-02T12:14:52.711Z,4.50
2023-04-02T12:16:44.592Z,8.50
2023-04-02T12:18:43.191Z,3.10
2023-04-02T12:20:35.055Z,3.10
2023-04-02T12:22:30.307Z,3.00
2023-04-02T12:24:24.133Z,3.90
2023-04-02T12:26:27.075Z,4.00
2023-04-02T12:28:19.014Z,4.40
2023-04-02T12:30:14.555Z,3.30
2023-04-02T12:32:22.219Z,3.50
2023-04-02T12:34:20.146Z,3.20
2023-04-02T12:36:14.143Z,5.10
2023-04-02T12:38:06.237Z,4.20
2023-04-02T12:40:07.274Z,4.40
2023-04-02T12:41:59.766Z,2.70
2023-04-02T12:44:01.327Z,3.80
2023-04-02T12:45:55.125Z,2.10
2023-04-02T12:47:47.185Z,3.90
2023-04-02T12:49:40.530Z,3.30
2023-04-02T12:51:32.966Z,4.50
2023-04-02T12:53:29.804Z,4.50
2023-04-02T12:55:23.622Z,4.90
2023-04-02T12:57:27.236Z,5.60
2023-04-02T12:59:34.880Z,5.20
2023-04-02T13:01:31.659Z,6.50
2023-04-02T13:03:23.613Z,5.70
2023-04-02T13:06:03.666Z,5.80
2023-04-02T13:07:54.985Z,4.20
2023-04-02T13:09:51.951Z,4.90
2023-04-02T13:11:43.651Z,4.40
2023-04-02T13:13:39.970Z,4.40
2023-04-02T13:15:34.441Z,4.80
2023-04-02T13:17:41.087Z,4.10
2023-04-02T13:19:34.058Z,5.00
2023-04-02T13:21:28.517Z,3.70
2023-04-02T13:23:29.678Z,4.00
2023-04-02T13:25:27.603Z,4.40
2023-04-02T13:27:19.694Z,4.60
2023-04-02T13:29:34.110Z,5.30
2023-04-02T13:31:26.881Z,4.30
2023-04-02T13:33:18.608Z,7.10
2023-04-02T13:35:10.185Z,3.60
2023-04-02T13:37:01.963Z,5.50
2023-04-02T13:38:53.513Z,2.80
2023-04-02T13:40:46.025Z,3.70
2023-04-02T13:42:42.863Z,3.90
2023-04-02T13:44:37.604Z,4.30
2023-04-02T13:46:31.616Z,4.70
2023-04-02T13:48:26.260Z,5.30
2023-04-02T13:50:20.537Z,4.70
2023-04-02T13:52:15.897Z,2.30
2023-04-02T13:54:14.706Z,3.90
2023-04-02T13:56:08.546Z,4.60
2023-04-02T13:57:59.888Z,5.20
2023-04-02T13:59:51.924Z,4.70
2023-04-02T14:01:45.228Z,4.00
2023-04-02T14:03:37.725Z,4.90
2023-04-02T14:05:47.259Z,5.10
2023-04-02T14:07:41.912Z,5.20
2023-04-02T14:09:43.644Z,4.30
2023-04-02T14:11:56.870Z,3.70
2023-04-02T14:14:34.466Z,5.40
2023-04-02T14:16:32.069Z,2.80
2023-04-02T14:18:53.917Z,3.40
2023-04-02T14:21:07.291Z,4.30
2023-04-02T14:23:21.964Z,6.00
2023-04-02T14:25:38.122Z,3.60
2023-04-02T14:27:44.767Z,7.40
2023-04-02T14:29:54.607Z,4.30
2023-04-02T14:34:33.406Z,4.30
2023-04-02T14:36:43.547Z,3.30
2023-04-02T14:38:43.287Z,4.60
2023-04-02T14:40:51.648Z,4.00
2023-04-02T14:42:49.262Z,5.40
2023-04-02T14:44:50.368Z,5.90
2023-04-02T14:46:41.887Z,4.00
2023-04-02T14:49:02.159Z,2.70
2023-04-02T14:51:00.147Z,4.10
2023-04-02T14:52:55.922Z,3.70
2023-04-02T14:54:57.624Z,4.70
2023-04-02T14:56:58.666Z,3.80
2023-04-02T14:59:03.065Z,6.30
2023-04-02T15:01:02.114Z,7.80
2023-04-02T15:03:18.801Z,5.90
2023-04-02T15:05:22.667Z,5.20
2023-04-02T15:07:24.379Z,6.00
2023-04-02T15:09:21.139Z,4.50
2023-04-02T15:11:16.421Z,4.90
2023-04-02T15:13:17.774Z,5.10
2023-04-02T15:15:40.364Z,8.40
2023-04-02T15:17:32.782Z,6.20
2023-04-02T15:19:24.357Z,4.50
2023-04-02T15:21:29.997Z,8.00
2023-04-02T15:23:35.686Z,5.80
2023-04-02T15:25:29.558Z,4.70
2023-04-02T15:28:09.925Z,5.20
2023-04-02T15:30:15.084Z,6.60
2023-04-02T15:32:36.134Z,4.90
2023-04-02T15:34:32.914Z,5.30
2023-04-02T15:36:46.804Z,8.70
2023-04-02T15:38:49.941Z,6.10
2023-04-02T15:41:02.737Z,6.40
2023-04-02T15:43:20.032Z,5.00
2023-04-02T15:45:23.370Z,5.50
2023-04-02T15:47:21.035Z,6.70
2023-04-02T15:49:35.950Z,7.30
2023-04-02T15:51:51.919Z,9.60
2023-04-02T15:54:16.530Z,6.90
2023-04-02T15:56:17.351Z,8.00
2023-04-02T15:58:20.907Z,6.20
2023-04-02T16:00:26.945Z,6.70
2023-04-02T16:02:46.363Z,6.30
2023-04-02T16:05:03.935Z,5.80
2023-04-02T16:07:29.209Z,5.70
2023-04-02T16:09:39.262Z,6.60
2023-04-02T16:11:31.234Z,6.20
2023-04-02T16:13:37.071Z,7.90
2023-04-02T16:15:37.692Z,7.10
2023-04-02T16:17:35.117Z,9.70
2023-04-02T16:19:42.516Z,6.10
2023-04-02T16:22:15.735Z,7.70
2023-04-02T16:24:14.103Z,4.90
2023-04-02T16:26:35.490Z,6.40
2023-04-02T16:28:35.858Z,5.00
2023-04-02T16:30:53.041Z,6.80
2023-04-02T16:32:56.951Z,5.70
2023-04-02T16:35:15.267Z,4.70
2023-04-02T16:37:33.344Z,5.10
2023-04-02T16:39:35.698Z,5.50
2023-04-02T16:41:52.384Z,6.60
2023-04-02T16:44:00.600Z,4.50
2023-04-02T16:45:57.584Z,6.00
2023-04-02T16:48:13.918Z,4.40
2023-04-02T16:50:42.487Z,4.60
2023-04-02T16:53:05.861Z,4.10
2023-04-02T16:55:13.006Z,2.90
2023-04-02T16:57:23.266Z,4.30
2023-04-02T17:02:55.160Z,4.40
2023-04-02T17:05:32.508Z,3.40
2023-04-02T17:07:40.679Z,5.40
2023-04-02T17:09:51.764Z,5.40
2023-04-02T17:11:53.336Z,4.70
2023-04-02T17:13:51.291Z,5.40
2023-04-02T17:15:47.954Z,4.70
2023-04-02T17:17:49.803Z,7.30
2023-04-02T17:19:43.832Z,5.50
2023-04-02T17:21:38.284Z,6.00
2023-04-02T17:23:32.332Z,5.60
2023-04-02T17:25:31.205Z,5.50
2023-04-02T17:27:27.064Z,5.10
2023-04-02T17:29:35.628Z,8.00
2023-04-02T17:31:30.940Z,8.40
2023-04-02T17:33:26.771Z,6.60
2023-04-02T17:35:40.427Z,7.10
2023-04-02T17:37:39.002Z,6.80
2023-04-02T17:39:53.351Z,4.70
2023-04-02T17:41:55.587Z,7.10
2023-04-02T17:44:05.883Z,6.90
2023-04-02T17:46:03.872Z,7.20
2023-04-02T17:48:02.803Z,7.10
2023-04-02T17:50:15.936Z,8.90
2023-04-02T17:52:19.802Z,7.00
2023-04-02T17:54:23.346Z,6.80
2023-04-02T17:56:46.817Z,8.30
2023-04-02T17:58:49.525Z,6.90
2023-04-02T18:01:03.458Z,8.00
2023-04-02T18:03:09.351Z,8.60
2023-04-02T18:05:04.258Z,6.70
2023-04-02T18:07:02.006Z,7.40
2023-04-02T18:09:09.534Z,5.50
2023-04-02T18:11:11.037Z,6.50
2023-04-02T18:13:19.387Z,5.80
2023-04-02T18:15:38.747Z,5.90
2023-04-02T18:17:39.076Z,5.30
2023-04-02T18:19:37.122Z,4.50
2023-04-02T18:21:43.865Z,2.90
2023-04-02T18:24:03.058Z,5.60
2023-04-02T18:26:32.278Z,6.20
2023-04-02T18:28:48.944Z,5.30
2023-04-02T18:30:49.238Z,5.50
2023-04-02T18:32:47.016Z,5.60
2023-04-02T18:34:47.945Z,5.00
2023-04-02T18:37:15.386Z,6.40
2023-04-02T18:39:25.784Z,3.60
2023-04-02T18:41:55.106Z,6.60
2023-04-02T18:44:13.565Z,6.70
2023-04-02T18:46:31.025Z,5.60
2023-04-02T18:48:26.788Z,7.90
2023-04-02T18:50:29.510Z,7.20
2023-04-02T18:52:25.063Z,6.60
2023-04-02T18:54:17.019Z,8.50
2023-04-02T18:56:14.973Z,5.30
2023-04-02T18:58:15.157Z,6.40
2023-04-02T19:00:26.460Z,5.50
2023-04-02T19:02:21.148Z,6.80
2023-04-02T19:04:15.480Z,10.50
2023-04-02T19:06:37.787Z,7.60
2023-04-02T19:08:34.779Z,14.60
2023-04-02T19:10:32.367Z,14.20
2023-04-02T19:12:24.294Z,12.80
2023-04-02T19:14:18.790Z,15.90
2023-04-02T19:16:22.740Z,10.50
2023-04-02T19:18:17.574Z,12.30
2023-04-02T19:20:25.262Z,5.80
2023-04-02T19:22:45.187Z,6.10
2023-04-02T19:25:14.046Z,7.00
2023-04-02T19:27:33.552Z,5.90
2023-04-02T19:29:48.009Z,7.40
2023-04-02T19:31:58.935Z,7.80
2023-04-02T19:34:06.780Z,7.40
2023-04-02T19:36:23.969Z,7.30
2023-04-02T19:38:24.456Z,4.40
2023-04-02T19:40:46.888Z,4.80
2023-04-02T19:42:46.566Z,7.30
2023-04-02T19:44:43.415Z,4.30
2023-04-02T19:46:35.953Z,4.40
2023-04-02T19:48:36.932Z,3.10
2023-04-02T19:50:29.001Z,5.90
2023-04-02T19:52:21.292Z,3.30
2023-04-02T19:54:13.167Z,3.40
2023-04-02T19:56:05.191Z,4.50
2023-04-02T19:58:08.502Z,4.40
2023-04-02T20:00:12.552Z,4.30
2023-04-02T20:02:07.242Z,3.50
2023-04-02T20:03:58.805Z,4.70
2023-04-02T20:05:51.224Z,4.10
2023-04-02T20:07:42.944Z,4.80
2023-04-02T20:09:34.497Z,4.00
2023-04-02T20:11:27.619Z,4.10
2023-04-02T20:13:19.400Z,4.10
2023-04-02T20:15:11.800Z,5.20
2023-04-02T20:17:03.337Z,3.50
2023-04-02T20:18:55.890Z,2.80
2023-04-02T20:20:48.553Z,4.90
2023-04-02T20:22:40.627Z,3.50
2023-04-02T20:24:31.820Z,3.80
2023-04-02T20:26:23.340Z,1.60
2023-04-02T20:28:15.087Z,3.00
2023-04-02T20:30:06.999Z,4.40
2023-04-02T20:31:59.130Z,2.70
2023-04-02T20:33:56.724Z,3.60
2023-04-02T20:35:49.838Z,3.10
2023-04-02T20:37:41.985Z,5.70
2023-04-02T20:39:33.703Z,3.60
2023-04-02T20:41:26.652Z,4.10
2023-04-02T20:43:18.165Z,3.50
2023-04-02T20:45:10.439Z,4.00
2023-04-02T20:47:02.532Z,3.30
2023-04-02T20:48:54.231Z,2.90
2023-04-02T20:50:48.467Z,3.30
2023-04-02T20:52:39.662Z,2.70
2023-04-02T20:54:31.702Z,3.20
2023-04-02T20:56:26.776Z,2.70
2023-04-02T20:58:18.980Z,3.50
2023-04-02T21:00:11.942Z,3.40
2023-04-02T21:02:03.699Z,2.10
2023-04-02T21:03:59.662Z,2.20
2023-04-02T21:05:51.251Z,1.90
2023-04-02T21:07:43.259Z,3.60
2023-04-02T21:09:35.410Z,2.80
2023-04-02T21:11:27.242Z,2.70
2023-04-02T21:13:19.051Z,2.40
2023-04-02T21:15:13.602Z,3.00
2023-04-02T21:17:07.454Z,6.60
2023-04-02T21:19:02.207Z,2.20
2023-04-02T21:21:01.287Z,5.90
2023-04-02T21:22:52.980Z,6.40
2023-04-02T21:24:44.739Z,3.90
2023-04-02T21:26:38.828Z,2.70
2023-04-02T21:28:30.525Z,3.50
2023-04-02T21:30:21.719Z,3.00
2023-04-02T21:32:21.282Z,3.20
2023-04-02T21:34:15.695Z,2.20
2023-04-02T21:36:11.633Z,4.20
2023-04-02T21:38:03.646Z,4.10
2023-04-02T21:39:55.005Z,5.00
2023-04-02T21:41:47.478Z,2.90
2023-04-02T21:45:30.255Z,3.70
2023-04-02T21:47:21.753Z,2.40
2023-04-02T21:49:16.315Z,3.10
2023-04-02T21:51:10.069Z,2.40
2023-04-02T21:53:02.727Z,6.00
2023-04-02T21:54:54.005Z,3.50
2023-04-02T21:56:46.297Z,3.80
2023-04-02T21:58:37.653Z,2.80
2023-04-02T22:00:29.246Z,5.00
2023-04-02T22:02:20.732Z,3.30
2023-04-02T22:04:21.194Z,1.50
2023-04-02T22:06:15.952Z,2.90
2023-04-02T22:08:07.630Z,2.10
2023-04-02T22:09:59.296Z,4.40
2023-04-02T22:11:54.704Z,3.50
2023-04-02T22:13:47.459Z,2.50
2023-04-02T22:17:30.914Z,8.00
2023-04-02T22:19:22.707Z,1.90
2023-04-02T22:21:15.606Z,3.20
2023-04-02T22:23:06.980Z,3.60
2023-04-02T22:25:00.344Z,2.60
2023-04-02T22:26:52.467Z,3.50
2023-04-02T22:28:44.892Z,2.10
2023-04-02T22:30:37.315Z,3.70
2023-04-02T22:32:29.030Z,7.80
2023-04-02T22:34:21.621Z,3.10
2023-04-02T22:36:14.353Z,5.20
2023-04-02T22:38:06.275Z,6.00
2023-04-02T22:39:57.804Z,4.40
2023-04-02T22:42:11.382Z,5.80
2023-04-02T22:44:03.155Z,5.90
2023-04-02T22:45:55.225Z,3.80
2023-04-02T22:47:48.741Z,4.40
2023-04-02T22:49:40.543Z,4.60
2023-04-02T22:51:32.325Z,5.00
2023-04-02T22:53:23.866Z,4.50
2023-04-02T22:55:15.876Z,3.90
2023-04-02T22:57:07.499Z,4.30
2023-04-02T22:58:58.901Z,7.20
2023-04-02T23:00:50.530Z,6.00
2023-04-02T23:02:42.466Z,3.70
2023-04-02T23:04:34.053Z,5.50
2023-04-02T23:06:26.419Z,4.40
2023-04-02T23:08:17.871Z,3.80
2023-04-02T23:10:09.632Z,5.40
2023-04-02T23:12:01.462Z,6.30
2023-04-02T23:13:55.029Z,5.00
2023-04-02T23:15:46.599Z,4.50
2023-04-02T23:17:38.209Z,4.80
2023-04-02T23:19:29.958Z,5.10
2023-04-02T23:21:21.694Z,3.20
2023-04-02T23:23:13.517Z,4.60
2023-04-02T23:25:05.503Z,4.40
2023-04-02T23:26:57.194Z,6.60
2023-04-02T23:28:50.244Z,4.80
2023-04-02T23:30:43.326Z,4.10
2023-04-02T23:32:34.809Z,3.00
2023-04-02T23:34:26.678Z,4.50
2023-04-02T23:36:22.201Z,5.60
2023-04-02T23:38:14.074Z,3.70
2023-04-02T23:40:06.546Z,5.70
2023-04-02T23:41:59.342Z,3.80
2023-04-02T23:43:51.667Z,2.10
2023-04-02T23:45:49.948Z,4.80
2023-04-02T23:47:41.651Z,7.00
2023-04-02T23:49:33.461Z,6.30
2023-04-02T23:51:26.144Z,6.80
2023-04-02T23:53:18.749Z,3.20
2023-04-02T23:55:12.232Z,3.60
2023-04-02T23:57:04.069Z,6.10
2023-04-02T23:58:56.250Z,9.10
